createdAt,value
2023-04-17T00:01:28.121Z,2.85
2023-04-17T00:03:54.850Z,3.78
2023-04-17T00:06:21.542Z,3.88
2023-04-17T00:08:48.197Z,3.38
2023-04-17T00:11:15.532Z,4.43
2023-04-17T00:13:44.111Z,4.72
2023-04-17T00:16:12.772Z,3.83
2023-04-17T00:18:40.110Z,3.58
2023-04-17T00:21:06.783Z,2.85
2023-04-17T00:23:33.427Z,3.28
2023-04-17T00:26:00.262Z,3.10
2023-04-17T00:28:29.770Z,3.38
2023-04-17T00:30:58.448Z,2.92
2023-04-17T00:33:25.434Z,4.22
2023-04-17T00:35:52.329Z,3.40
2023-04-17T00:38:18.966Z,3.83
2023-04-17T00:40:46.354Z,2.92
2023-04-17T00:43:13.141Z,2.55
2023-04-17T00:45:39.928Z,2.63
2023-04-17T00:48:07.690Z,3.45
2023-04-17T00:50:35.098Z,3.03
2023-04-17T00:53:01.997Z,2.85
2023-04-17T00:55:31.053Z,2.58
2023-04-17T00:57:58.211Z,3.35
2023-04-17T01:00:24.983Z,3.00
2023-04-17T01:02:51.975Z,2.28
2023-04-17T01:05:18.868Z,2.78
2023-04-17T01:07:45.599Z,3.90
2023-04-17T01:10:12.445Z,3.10
2023-04-17T01:12:39.057Z,2.42
2023-04-17T01:15:06.173Z,2.78
2023-04-17T01:17:33.066Z,2.45
2023-04-17T01:19:59.725Z,2.17
2023-04-17T01:22:26.475Z,2.25
2023-04-17T01:24:57.094Z,4.25
2023-04-17T01:27:27.093Z,2.13
2023-04-17T01:29:54.845Z,3.83
2023-04-17T01:32:21.578Z,2.30
2023-04-17T01:34:48.267Z,2.42
2023-04-17T01:37:14.968Z,2.50
2023-04-17T01:39:41.656Z,2.80
2023-04-17T01:42:08.282Z,2.95
2023-04-17T01:44:37.508Z,2.55
2023-04-17T01:47:04.272Z,2.38
2023-04-17T01:49:31.029Z,2.72
2023-04-17T01:51:57.647Z,3.10
2023-04-17T01:54:25.084Z,2.08
2023-04-17T01:56:51.755Z,2.67
2023-04-17T01:59:19.199Z,2.47
2023-04-17T02:01:45.963Z,1.90
2023-04-17T02:04:12.723Z,2.33
2023-04-17T02:06:39.476Z,2.22
2023-04-17T02:09:06.206Z,2.13
2023-04-17T02:11:32.923Z,3.45
2023-04-17T02:13:59.885Z,2.13
2023-04-17T02:16:26.648Z,2.15
2023-04-17T02:18:53.626Z,2.00
2023-04-17T02:21:21.328Z,2.30
2023-04-17T02:23:48.125Z,2.10
2023-04-17T02:26:15.265Z,2.03
2023-04-17T02:28:45.251Z,1.92
2023-04-17T02:31:13.048Z,2.17
2023-04-17T02:33:39.784Z,1.73
2023-04-17T02:36:07.866Z,2.75
2023-04-17T02:38:40.567Z,2.00
2023-04-17T02:41:07.364Z,2.15
2023-04-17T02:43:34.470Z,2.20
2023-04-17T02:46:01.489Z,2.10
2023-04-17T02:48:28.453Z,3.00
2023-04-17T02:50:55.474Z,1.80
2023-04-17T02:53:22.394Z,1.73
2023-04-17T02:55:51.939Z,2.35
2023-04-17T02:58:21.627Z,2.58
2023-04-17T03:00:48.409Z,2.35
2023-04-17T03:03:20.048Z,1.80
2023-04-17T03:05:46.842Z,1.90
2023-04-17T03:08:13.565Z,1.85
2023-04-17T03:10:48.341Z,1.60
2023-04-17T03:13:15.639Z,2.20
2023-04-17T03:15:42.543Z,1.80
2023-04-17T03:18:09.198Z,1.70
2023-04-17T03:20:36.135Z,2.20
2023-04-17T03:23:02.953Z,1.80
2023-04-17T03:25:29.640Z,1.80
2023-04-17T03:27:56.622Z,1.63
2023-04-17T03:30:31.129Z,1.95
2023-04-17T03:33:01.434Z,1.90
2023-04-17T03:35:29.954Z,1.90
2023-04-17T03:37:56.585Z,2.65
2023-04-17T03:40:23.879Z,1.75
2023-04-17T03:42:50.881Z,1.90
2023-04-17T03:45:17.623Z,2.92
2023-04-17T03:47:44.686Z,2.20
2023-04-17T03:50:11.412Z,1.70
2023-04-17T03:52:44.362Z,1.92
2023-04-17T03:55:11.253Z,1.83
2023-04-17T03:57:38.198Z,1.92
2023-04-17T04:00:12.305Z,1.77
2023-04-17T04:02:56.139Z,1.50
2023-04-17T04:05:27.561Z,1.65
2023-04-17T04:07:56.183Z,1.60
2023-04-17T04:10:29.723Z,1.50
2023-04-17T04:12:57.119Z,1.73
2023-04-17T04:15:25.273Z,1.60
2023-04-17T04:17:55.992Z,1.92
2023-04-17T04:20:22.734Z,1.50
2023-04-17T04:22:53.779Z,1.52
2023-04-17T04:25:20.597Z,1.50
2023-04-17T04:27:56.365Z,1.63
2023-04-17T04:30:25.499Z,2.17
2023-04-17T04:33:01.049Z,1.55
2023-04-17T04:35:30.157Z,1.60
2023-04-17T04:38:02.008Z,1.60
2023-04-17T04:40:36.762Z,1.40
2023-04-17T04:43:04.674Z,1.70
2023-04-17T04:45:38.695Z,1.70
2023-04-17T04:48:06.357Z,1.73
2023-04-17T04:50:33.042Z,1.75
2023-04-17T04:53:00.270Z,1.45
2023-04-17T04:55:44.720Z,1.60
2023-04-17T04:58:12.470Z,1.40
2023-04-17T05:00:39.520Z,1.65
2023-04-17T05:03:08.749Z,1.50
2023-04-17T05:05:36.045Z,3.05
2023-04-17T05:08:03.915Z,2.00
2023-04-17T05:10:34.161Z,1.50
2023-04-17T05:13:03.987Z,2.00
2023-04-17T05:15:31.763Z,3.92
2023-04-17T05:17:58.762Z,1.95
2023-04-17T05:20:27.698Z,1.60
2023-04-17T05:22:57.414Z,2.08
2023-04-17T05:25:24.683Z,7.93
2023-04-17T05:27:53.134Z,7.55
2023-04-17T05:30:19.985Z,14.18
2023-04-17T05:32:51.951Z,18.10
2023-04-17T05:35:31.481Z,12.60
2023-04-17T05:37:59.267Z,17.80
2023-04-17T05:40:25.980Z,13.32
2023-04-17T05:42:52.619Z,12.82
2023-04-17T05:45:19.370Z,10.65
2023-04-17T05:47:46.072Z,13.13
2023-04-17T05:50:14.531Z,11.70
2023-04-17T05:52:41.256Z,10.50
2023-04-17T05:55:10.615Z,15.77
2023-04-17T05:57:38.191Z,15.02
2023-04-17T06:00:11.519Z,20.58
2023-04-17T06:02:43.141Z,14.60
2023-04-17T06:05:16.527Z,12.48
2023-04-17T06:07:45.755Z,8.63
2023-04-17T06:10:12.864Z,9.65
2023-04-17T06:12:39.526Z,7.10
2023-04-17T06:15:09.510Z,7.57
2023-04-17T06:17:38.002Z,12.48
2023-04-17T06:20:09.007Z,5.82
2023-04-17T06:22:39.321Z,5.47
2023-04-17T06:25:07.168Z,6.05
2023-04-17T06:27:36.361Z,8.73
2023-04-17T06:30:04.724Z,8.55
2023-04-17T06:32:35.483Z,5.85
2023-04-17T06:35:02.427Z,7.20
2023-04-17T06:37:41.699Z,4.40
2023-04-17T06:40:09.212Z,6.97
2023-04-17T06:42:35.904Z,6.00
2023-04-17T06:45:09.753Z,7.18
2023-04-17T06:47:36.771Z,5.38
2023-04-17T06:50:03.754Z,5.32
2023-04-17T06:52:30.402Z,4.63
2023-04-17T06:54:57.110Z,5.05
2023-04-17T06:57:23.760Z,5.72
2023-04-17T06:59:50.411Z,5.00
2023-04-17T07:02:17.563Z,4.47
2023-04-17T07:04:44.331Z,5.95
2023-04-17T07:07:11.188Z,7.20
2023-04-17T07:09:37.857Z,6.38
2023-04-17T07:12:04.565Z,5.10
2023-04-17T07:14:31.186Z,3.95
2023-04-17T07:16:57.787Z,5.72
2023-04-17T07:19:24.444Z,4.97
2023-04-17T07:21:51.968Z,5.35
2023-04-17T07:24:18.649Z,5.43
2023-04-17T07:26:45.260Z,3.13
2023-04-17T07:29:12.040Z,5.05
2023-04-17T07:31:38.933Z,4.90
2023-04-17T07:34:05.717Z,5.60
2023-04-17T07:36:32.418Z,4.03
2023-04-17T07:38:59.082Z,7.82
2023-04-17T07:41:25.692Z,11.15
2023-04-17T07:43:52.305Z,6.70
2023-04-17T07:46:18.986Z,4.97
2023-04-17T07:48:46.495Z,6.32
2023-04-17T07:51:13.124Z,6.30
2023-04-17T07:53:40.090Z,6.03
2023-04-17T07:56:07.710Z,6.00
2023-04-17T07:58:35.882Z,5.43
2023-04-17T08:01:05.576Z,5.15
2023-04-17T08:03:32.608Z,4.47
2023-04-17T08:05:59.540Z,9.52
2023-04-17T08:08:26.181Z,8.98
2023-04-17T08:10:52.840Z,6.13
2023-04-17T08:13:19.553Z,13.02
2023-04-17T08:15:46.770Z,5.65
2023-04-17T08:18:13.892Z,5.53
2023-04-17T08:20:40.582Z,5.65
2023-04-17T08:23:07.259Z,5.22
2023-04-17T08:25:33.943Z,5.45
2023-04-17T08:28:00.722Z,5.90
2023-04-17T08:30:27.385Z,7.03
2023-04-17T08:32:55.616Z,4.80
2023-04-17T08:35:22.527Z,5.13
2023-04-17T08:37:49.567Z,4.32
2023-04-17T08:40:18.676Z,4.50
2023-04-17T08:42:48.026Z,4.63
2023-04-17T08:45:15.025Z,4.55
2023-04-17T08:47:43.000Z,6.47
2023-04-17T08:50:11.768Z,7.93
2023-04-17T08:52:42.711Z,4.72
2023-04-17T08:55:11.735Z,7.50
2023-04-17T08:58:14.663Z,6.30
2023-04-17T09:00:43.369Z,5.18
2023-04-17T09:03:12.262Z,5.63
2023-04-17T09:05:41.986Z,5.90
2023-04-17T09:08:11.444Z,5.88
2023-04-17T09:10:42.263Z,5.72
2023-04-17T09:13:09.201Z,8.05
2023-04-17T09:15:36.573Z,4.22
2023-04-17T09:18:04.146Z,5.15
2023-04-17T09:20:30.831Z,4.15
2023-04-17T09:23:02.582Z,5.15
2023-04-17T09:25:29.919Z,4.63
2023-04-17T09:28:13.801Z,4.88
2023-04-17T09:30:41.571Z,4.55
2023-04-17T09:33:09.604Z,6.07
2023-04-17T09:35:40.548Z,4.30
2023-04-17T09:38:07.466Z,5.05
2023-04-17T09:40:39.275Z,4.15
2023-04-17T09:43:09.415Z,7.57
2023-04-17T09:45:39.853Z,4.75
2023-04-17T09:48:11.173Z,4.43
2023-04-17T09:50:38.851Z,4.78
2023-04-17T09:53:07.182Z,4.43
2023-04-17T09:55:34.696Z,4.80
2023-04-17T09:58:06.400Z,5.63
2023-04-17T10:00:33.153Z,5.07
2023-04-17T10:03:00.360Z,4.57
2023-04-17T10:05:29.201Z,5.45
2023-04-17T10:07:56.561Z,4.75
2023-04-17T10:10:25.610Z,5.70
2023-04-17T10:12:55.436Z,5.93
2023-04-17T10:15:23.661Z,4.70
2023-04-17T10:17:50.403Z,5.28
2023-04-17T10:20:23.211Z,4.63
2023-04-17T10:22:57.156Z,4.65
2023-04-17T10:25:25.735Z,4.20
2023-04-17T10:27:54.446Z,5.28
2023-04-17T10:30:26.353Z,5.95
2023-04-17T10:33:21.826Z,6.70
2023-04-17T10:38:16.364Z,12.13
2023-04-17T10:40:44.693Z,12.32
2023-04-17T10:43:25.273Z,6.63
2023-04-17T10:46:13.448Z,5.82
2023-04-17T10:48:52.546Z,4.82
2023-04-17T10:51:29.064Z,8.68
2023-04-17T10:53:58.586Z,5.38
2023-04-17T10:56:27.165Z,5.65
2023-04-17T10:59:04.195Z,4.25
2023-04-17T11:01:33.947Z,9.05
2023-04-17T11:04:00.816Z,7.35
2023-04-17T11:06:28.911Z,9.43
2023-04-17T11:08:57.510Z,4.78
2023-04-17T11:11:35.208Z,7.55
2023-04-17T11:14:17.972Z,5.60
2023-04-17T11:16:47.256Z,6.47
2023-04-17T11:19:21.885Z,6.68
2023-04-17T11:21:50.316Z,4.32
2023-04-17T11:24:24.111Z,4.53
2023-04-17T11:26:51.108Z,5.53
2023-04-17T11:29:19.220Z,5.90
2023-04-17T11:31:47.050Z,5.93
2023-04-17T11:34:15.708Z,4.85
2023-04-17T11:36:52.477Z,4.60
2023-04-17T11:39:19.984Z,4.43
2023-04-17T11:41:46.821Z,4.35
2023-04-17T11:44:14.420Z,4.55
2023-04-17T11:46:41.400Z,6.47
2023-04-17T11:49:08.178Z,5.22
2023-04-17T11:51:35.072Z,4.03
2023-04-17T11:54:01.674Z,5.50
2023-04-17T11:56:31.148Z,4.63
2023-04-17T11:58:59.116Z,4.45
2023-04-17T12:01:28.856Z,4.55
2023-04-17T12:03:57.770Z,5.07
2023-04-17T12:06:25.322Z,4.47
2023-04-17T12:08:53.938Z,3.40
2023-04-17T12:11:26.284Z,3.35
2023-04-17T12:13:53.738Z,3.95
2023-04-17T12:16:20.778Z,9.52
2023-04-17T12:18:47.800Z,9.70
2023-04-17T12:21:14.625Z,6.45
2023-04-17T12:23:41.522Z,4.85
2023-04-17T12:26:09.208Z,5.07
2023-04-17T12:28:36.464Z,4.05
2023-04-17T12:31:04.647Z,4.38
2023-04-17T12:33:32.122Z,6.15
2023-04-17T12:36:01.703Z,5.18
2023-04-17T12:38:28.616Z,4.30
2023-04-17T12:40:55.346Z,4.45
2023-04-17T12:43:22.032Z,4.88
2023-04-17T12:45:48.906Z,12.77
2023-04-17T12:48:15.561Z,8.15
2023-04-17T12:50:43.606Z,6.63
2023-04-17T12:53:12.611Z,7.80
2023-04-17T12:55:41.268Z,8.73
2023-04-17T12:58:10.124Z,4.90
2023-04-17T13:00:37.461Z,10.23
2023-04-17T13:03:05.143Z,6.28
2023-04-17T13:05:32.291Z,5.20
2023-04-17T13:07:59.251Z,9.48
2023-04-17T13:10:26.054Z,5.63
2023-04-17T13:12:52.869Z,4.60
2023-04-17T13:15:19.577Z,6.07
2023-04-17T13:17:46.557Z,6.28
2023-04-17T13:20:13.379Z,5.38
2023-04-17T13:22:40.131Z,5.00
2023-04-17T13:25:07.233Z,4.57
2023-04-17T13:27:33.940Z,7.00
2023-04-17T13:30:00.669Z,11.77
2023-04-17T13:32:27.347Z,9.68
2023-04-17T13:34:54.211Z,8.80
2023-04-17T13:37:21.221Z,5.90
2023-04-17T13:39:47.905Z,8.25
2023-04-17T13:42:18.835Z,5.65
2023-04-17T13:44:45.679Z,7.13
2023-04-17T13:47:13.333Z,4.90
2023-04-17T13:49:39.992Z,5.70
2023-04-17T13:52:07.336Z,6.18
2023-04-17T13:54:34.042Z,5.78
2023-04-17T13:57:01.182Z,11.55
2023-04-17T13:59:28.048Z,5.97
2023-04-17T14:01:54.952Z,5.45
2023-04-17T14:04:22.336Z,4.75
2023-04-17T14:06:51.109Z,5.25
2023-04-17T14:09:18.035Z,3.80
2023-04-17T14:11:44.721Z,4.25
2023-04-17T14:14:12.896Z,5.93
2023-04-17T14:16:43.489Z,4.00
2023-04-17T14:19:14.209Z,4.57
2023-04-17T14:21:42.008Z,4.90
2023-04-17T14:24:09.129Z,5.90
2023-04-17T14:26:37.432Z,5.38
2023-04-17T14:29:04.396Z,5.60
2023-04-17T14:31:31.623Z,6.93
2023-04-17T14:33:58.516Z,4.15
2023-04-17T14:36:26.016Z,5.10
2023-04-17T14:38:53.889Z,4.95
2023-04-17T14:41:20.829Z,5.00
2023-04-17T14:43:47.810Z,5.18
2023-04-17T14:46:14.699Z,5.40
2023-04-17T14:48:54.757Z,4.05
2023-04-17T14:51:27.446Z,4.07
2023-04-17T14:53:54.426Z,3.72
2023-04-17T14:56:21.830Z,3.92
2023-04-17T14:58:48.818Z,4.15
2023-04-17T15:01:15.685Z,4.60
2023-04-17T15:03:45.152Z,4.13
2023-04-17T15:06:14.376Z,5.45
2023-04-17T15:08:41.383Z,4.65
2023-04-17T15:11:08.649Z,4.25
2023-04-17T15:13:35.906Z,3.70
2023-04-17T15:16:03.440Z,5.13
2023-04-17T15:18:30.299Z,4.15
2023-04-17T15:20:57.001Z,3.83
2023-04-17T15:23:25.417Z,4.47
2023-04-17T15:25:54.108Z,5.47
2023-04-17T15:28:21.350Z,3.80
2023-04-17T15:30:48.099Z,5.05
2023-04-17T15:33:14.887Z,4.00
2023-04-17T15:35:41.493Z,4.60
2023-04-17T15:38:08.438Z,4.47
2023-04-17T15:40:35.087Z,4.25
2023-04-17T15:43:01.977Z,4.38
2023-04-17T15:45:28.592Z,4.82
2023-04-17T15:47:55.335Z,4.53
2023-04-17T15:50:22.217Z,4.95
2023-04-17T15:52:48.848Z,5.15
2023-04-17T15:55:15.949Z,5.03
2023-04-17T15:57:43.399Z,5.28
2023-04-17T16:00:10.859Z,5.13
2023-04-17T16:02:37.834Z,6.47
2023-04-17T16:05:04.920Z,8.32
2023-04-17T16:07:32.475Z,6.50
2023-04-17T16:09:59.353Z,8.55
2023-04-17T16:12:28.094Z,6.97
2023-04-17T16:14:54.841Z,7.30
2023-04-17T16:17:21.500Z,6.68
2023-04-17T16:19:50.354Z,7.82
2023-04-17T16:22:19.082Z,6.53
2023-04-17T16:24:45.700Z,6.13
2023-04-17T16:27:12.301Z,7.50
2023-04-17T16:29:39.135Z,7.85
2023-04-17T16:32:05.767Z,7.43
2023-04-17T16:34:32.452Z,6.78
2023-04-17T16:36:59.096Z,6.60
2023-04-17T16:39:25.775Z,7.40
2023-04-17T16:41:52.910Z,7.65
2023-04-17T16:44:19.740Z,7.97
2023-04-17T16:47:09.349Z,6.72
2023-04-17T16:49:33.073Z,6.05
2023-04-17T16:51:59.887Z,6.13
2023-04-17T16:54:26.574Z,7.50
2023-04-17T16:56:53.197Z,6.65
2023-04-17T16:59:19.872Z,6.80
2023-04-17T17:01:49.874Z,6.82
2023-04-17T17:04:16.720Z,8.73
2023-04-17T17:06:43.595Z,8.80
2023-04-17T17:09:10.448Z,6.97
2023-04-17T17:11:37.306Z,7.00
2023-04-17T17:14:04.215Z,6.90
2023-04-17T17:16:31.075Z,8.57
2023-04-17T17:18:57.856Z,7.53
2023-04-17T17:21:24.485Z,6.70
2023-04-17T17:23:51.465Z,8.77
2023-04-17T17:26:18.188Z,7.45
2023-04-17T17:28:50.846Z,6.47
2023-04-17T17:31:17.690Z,6.40
2023-04-17T17:33:44.739Z,7.97
2023-04-17T17:36:12.000Z,7.57
2023-04-17T17:38:39.009Z,8.80
2023-04-17T17:41:05.750Z,7.35
2023-04-17T17:43:32.357Z,6.00
2023-04-17T17:45:59.059Z,7.50
2023-04-17T17:48:25.894Z,6.35
2023-04-17T17:50:57.113Z,5.97
2023-04-17T17:53:26.254Z,6.05
2023-04-17T17:55:57.093Z,11.30
2023-04-17T17:58:24.300Z,6.15
2023-04-17T18:00:51.179Z,6.78
2023-04-17T18:03:18.344Z,7.22
2023-04-17T18:05:46.470Z,6.82
2023-04-17T18:08:14.025Z,6.50
2023-04-17T18:10:41.120Z,8.40
2023-04-17T18:13:07.907Z,6.10
2023-04-17T18:15:35.888Z,6.32
2023-04-17T18:18:02.578Z,6.00
2023-04-17T18:20:29.350Z,6.88
2023-04-17T18:22:55.987Z,5.57
2023-04-17T18:25:22.624Z,6.00
2023-04-17T18:27:49.257Z,6.03
2023-04-17T18:30:16.174Z,5.82
2023-04-17T18:32:43.040Z,5.95
2023-04-17T18:35:09.856Z,6.10
2023-04-17T18:37:36.676Z,6.95
2023-04-17T18:40:03.776Z,6.25
2023-04-17T18:42:30.545Z,5.85
2023-04-17T18:44:57.258Z,5.93
2023-04-17T18:47:23.955Z,5.72
2023-04-17T18:49:53.663Z,5.60
2023-04-17T18:52:20.614Z,6.05
2023-04-17T18:54:47.809Z,5.82
2023-04-17T18:57:14.525Z,5.82
2023-04-17T18:59:43.043Z,5.13
2023-04-17T19:02:10.097Z,6.55
2023-04-17T19:04:37.002Z,5.60
2023-04-17T19:07:03.791Z,5.07
2023-04-17T19:09:30.446Z,6.80
2023-04-17T19:11:58.593Z,5.35
2023-04-17T19:14:28.481Z,5.00
2023-04-17T19:16:55.315Z,5.10
2023-04-17T19:19:22.229Z,5.93
2023-04-17T19:21:48.876Z,7.15
2023-04-17T19:24:16.063Z,5.25
2023-04-17T19:26:42.952Z,5.13
2023-04-17T19:29:09.603Z,5.10
2023-04-17T19:31:37.465Z,5.20
2023-04-17T19:34:04.264Z,7.88
2023-04-17T19:36:31.155Z,5.20
2023-04-17T19:38:59.720Z,4.95
2023-04-17T19:41:26.569Z,4.90
2023-04-17T19:43:54.277Z,5.10
2023-04-17T19:46:22.525Z,5.22
2023-04-17T19:48:49.779Z,5.00
2023-04-17T19:51:16.948Z,5.95
2023-04-17T19:53:44.204Z,5.15
2023-04-17T19:56:10.935Z,4.70
2023-04-17T19:58:38.253Z,4.70
2023-04-17T20:01:05.331Z,5.15
2023-04-17T20:03:32.958Z,9.02
2023-04-17T20:06:00.572Z,5.93
2023-04-17T20:08:27.479Z,6.78
2023-04-17T20:10:54.264Z,6.05
2023-04-17T20:13:21.464Z,4.55
2023-04-17T20:15:48.129Z,6.40
2023-04-17T20:18:14.948Z,4.80
2023-04-17T20:20:41.554Z,5.45
2023-04-17T20:23:08.165Z,5.03
2023-04-17T20:25:34.883Z,5.50
2023-04-17T20:28:04.113Z,4.68
2023-04-17T20:30:31.060Z,6.13
2023-04-17T20:32:57.755Z,4.43
2023-04-17T20:35:24.923Z,5.30
2023-04-17T20:37:52.125Z,4.50
2023-04-17T20:40:19.284Z,5.93
2023-04-17T20:42:49.545Z,4.65
2023-04-17T20:45:16.318Z,4.72
2023-04-17T20:47:55.936Z,4.50
2023-04-17T20:50:24.209Z,5.18
2023-04-17T20:52:50.993Z,5.80
2023-04-17T20:55:19.820Z,5.05
2023-04-17T20:57:47.132Z,4.45
2023-04-17T21:00:14.077Z,4.90
2023-04-17T21:02:40.854Z,4.82
2023-04-17T21:05:08.619Z,4.80
2023-04-17T21:07:35.824Z,5.18
2023-04-17T21:10:02.751Z,4.80
2023-04-17T21:12:29.569Z,5.78
2023-04-17T21:14:56.822Z,5.10
2023-04-17T21:17:23.500Z,4.72
2023-04-17T21:19:50.285Z,4.88
2023-04-17T21:22:17.450Z,4.70
2023-04-17T21:24:44.113Z,6.18
2023-04-17T21:27:10.707Z,5.22
2023-04-17T21:29:37.753Z,5.07
2023-04-17T21:32:04.623Z,4.82
2023-04-17T21:34:31.410Z,5.00
2023-04-17T21:37:01.307Z,5.95
2023-04-17T21:39:27.992Z,6.00
2023-04-17T21:41:54.628Z,4.78
2023-04-17T21:44:21.267Z,5.88
2023-04-17T21:46:48.023Z,5.95
2023-04-17T21:49:14.672Z,4.88
2023-04-17T21:51:41.390Z,4.78
2023-04-17T21:54:09.658Z,4.80
2023-04-17T21:56:36.584Z,5.95
2023-04-17T21:59:03.784Z,4.68
2023-04-17T22:01:30.539Z,4.78
2023-04-17T22:03:57.406Z,4.95
2023-04-17T22:06:24.224Z,4.72
2023-04-17T22:08:50.936Z,5.35
2023-04-17T22:11:17.623Z,4.55
2023-04-17T22:13:45.142Z,4.63
2023-04-17T22:16:11.973Z,4.80
2023-04-17T22:18:38.704Z,5.22
2023-04-17T22:21:05.940Z,4.75
2023-04-17T22:23:32.600Z,4.47
2023-04-17T22:25:59.372Z,5.38
2023-04-17T22:28:29.925Z,4.70
2023-04-17T22:30:57.619Z,5.95
2023-04-17T22:33:24.522Z,4.40
2023-04-17T22:35:51.110Z,4.70
2023-04-17T22:38:19.345Z,4.47
2023-04-17T22:40:46.109Z,4.43
2023-04-17T22:43:12.728Z,4.60
2023-04-17T22:45:39.370Z,4.75
2023-04-17T22:48:06.644Z,4.90
2023-04-17T22:50:33.418Z,4.60
2023-04-17T22:53:00.190Z,5.25
2023-04-17T22:55:26.818Z,4.72
2023-04-17T22:57:53.428Z,4.95
2023-04-17T23:00:20.337Z,4.82
2023-04-17T23:02:47.475Z,4.38
2023-04-17T23:05:14.445Z,4.60
2023-04-17T23:07:41.315Z,5.18
2023-04-17T23:10:08.487Z,4.20
2023-04-17T23:12:35.104Z,4.38
2023-04-17T23:15:01.945Z,5.05
2023-04-17T23:17:28.741Z,4.85
2023-04-17T23:19:55.666Z,4.20
2023-04-17T23:22:22.474Z,4.80
2023-04-17T23:24:49.183Z,4.72
2023-04-17T23:27:15.829Z,4.45
2023-04-17T23:29:43.159Z,4.80
2023-04-17T23:32:09.771Z,4.40
2023-04-17T23:34:37.565Z,4.35
2023-04-17T23:37:04.332Z,4.78
2023-04-17T23:39:31.065Z,4.43
2023-04-17T23:41:59.024Z,4.70
2023-04-17T23:44:25.621Z,4.30
2023-04-17T23:46:52.372Z,4.28
2023-04-17T23:49:19.092Z,4.88
2023-04-17T23:51:45.820Z,4.30
2023-04-17T23:54:12.695Z,4.32
2023-04-17T23:56:39.624Z,5.43
2023-04-17T23:59:06.291Z,4.68
